createdAt,value
2023-11-17T00:00:44.541Z,959.33
2023-11-17T00:01:44.269Z,959.44
2023-11-17T00:02:44.347Z,959.48
2023-11-17T00:03:44.375Z,959.52
2023-11-17T00:04:44.365Z,959.60
2023-11-17T00:05:44.238Z,959.58
2023-11-17T00:06:44.227Z,959.60
2023-11-17T00:07:44.212Z,959.64
2023-11-17T00:08:44.196Z,959.75
2023-11-17T00:09:44.236Z,959.93
2023-11-17T00:10:44.178Z,959.99
2023-11-17T00:11:44.152Z,959.95
2023-11-17T00:12:44.177Z,959.98
2023-11-17T00:13:44.135Z,959.91
2023-11-17T00:14:44.117Z,960.11
2023-11-17T00:15:44.166Z,960.17
2023-11-17T00:16:44.154Z,960.11
2023-11-17T00:17:44.137Z,960.37
2023-11-17T00:18:44.109Z,960.45
2023-11-17T00:19:44.083Z,960.46
2023-11-17T00:20:44.056Z,960.61
2023-11-17T00:21:44.072Z,960.56
2023-11-17T00:22:44.057Z,960.52
2023-11-17T00:23:44.039Z,960.70
2023-11-17T00:24:44.035Z,960.68
2023-11-17T00:25:44.001Z,960.68
2023-11-17T00:26:43.985Z,960.78
2023-11-17T00:27:44.008Z,960.72
2023-11-17T00:28:43.976Z,960.79
2023-11-17T00:29:43.965Z,960.85
2023-11-17T00:30:43.954Z,960.92
2023-11-17T00:31:43.941Z,960.93
2023-11-17T00:32:43.936Z,961.00
2023-11-17T00:33:44.079Z,960.95
2023-11-17T00:34:43.983Z,960.97
2023-11-17T00:35:43.895Z,961.00
2023-11-17T00:36:43.939Z,961.04
2023-11-17T00:37:43.866Z,961.11
2023-11-17T00:38:43.858Z,961.10
2023-11-17T00:39:43.892Z,961.23
2023-11-17T00:40:43.834Z,961.20
2023-11-17T00:41:43.830Z,961.26
2023-11-17T00:42:43.866Z,961.38
2023-11-17T00:43:43.810Z,961.46
2023-11-17T00:44:43.785Z,961.47
2023-11-17T00:45:43.871Z,961.50
2023-11-17T00:46:43.894Z,961.50
2023-11-17T00:47:43.787Z,961.55
2023-11-17T00:48:43.793Z,961.65
2023-11-17T00:49:43.736Z,961.64
2023-11-17T00:50:43.718Z,961.70
2023-11-17T00:51:43.775Z,961.73
2023-11-17T00:52:43.701Z,961.73
2023-11-17T00:53:43.692Z,961.75
2023-11-17T00:54:44.221Z,961.77
2023-11-17T00:55:43.681Z,961.83
2023-11-17T00:56:43.648Z,961.90
2023-11-17T00:57:43.777Z,961.89
2023-11-17T00:58:43.624Z,961.89
2023-11-17T00:59:43.616Z,961.94
2023-11-17T01:00:43.664Z,962.04
2023-11-17T01:01:43.653Z,962.00
2023-11-17T01:02:43.737Z,961.98
2023-11-17T01:03:43.690Z,961.97
2023-11-17T01:04:43.580Z,962.08
2023-11-17T01:05:43.556Z,962.03
2023-11-17T01:06:43.531Z,962.06
2023-11-17T01:07:43.517Z,962.13
2023-11-17T01:08:43.502Z,962.21
2023-11-17T01:09:43.528Z,962.27
2023-11-17T01:10:43.492Z,962.35
2023-11-17T01:11:43.477Z,962.30
2023-11-17T01:12:43.511Z,962.40
2023-11-17T01:13:43.488Z,962.43
2023-11-17T01:14:43.471Z,962.49
2023-11-17T01:15:43.455Z,962.45
2023-11-17T01:16:43.457Z,962.44
2023-11-17T01:17:43.424Z,962.55
2023-11-17T01:18:43.419Z,962.56
2023-11-17T01:19:43.395Z,962.61
2023-11-17T01:20:43.384Z,962.64
2023-11-17T01:21:43.407Z,962.65
2023-11-17T01:22:43.365Z,962.67
2023-11-17T01:23:43.375Z,962.70
2023-11-17T01:24:43.406Z,962.70
2023-11-17T01:25:43.355Z,962.77
2023-11-17T01:26:43.320Z,962.75
2023-11-17T01:27:43.363Z,962.80
2023-11-17T01:28:43.306Z,962.79
2023-11-17T01:29:43.282Z,962.85
2023-11-17T01:30:43.313Z,962.86
2023-11-17T01:31:43.263Z,962.89
2023-11-17T01:32:43.277Z,962.94
2023-11-17T01:33:43.315Z,962.94
2023-11-17T01:34:43.329Z,962.96
2023-11-17T01:35:43.222Z,962.96
2023-11-17T01:36:43.371Z,962.99
2023-11-17T01:37:43.194Z,963.00
2023-11-17T01:38:47.118Z,963.02
2023-11-17T01:39:43.189Z,962.99
2023-11-17T01:40:43.168Z,963.09
2023-11-17T01:41:43.146Z,963.09
2023-11-17T01:42:43.146Z,963.11
2023-11-17T01:43:43.126Z,963.15
2023-11-17T01:44:43.115Z,963.14
2023-11-17T01:45:43.133Z,963.20
2023-11-17T01:46:43.134Z,963.20
2023-11-17T01:47:43.104Z,963.21
2023-11-17T01:48:43.072Z,963.25
2023-11-17T01:49:43.077Z,963.31
2023-11-17T01:50:43.058Z,963.41
2023-11-17T01:51:43.044Z,963.43
2023-11-17T01:52:43.029Z,963.44
2023-11-17T01:53:43.101Z,963.44
2023-11-17T01:54:43.007Z,963.49
2023-11-17T01:55:42.988Z,963.45
2023-11-17T01:56:42.975Z,963.47
2023-11-17T01:57:42.974Z,963.52
2023-11-17T01:58:42.972Z,963.62
2023-11-17T01:59:42.948Z,963.61
2023-11-17T02:00:42.958Z,963.64
2023-11-17T02:01:42.971Z,963.71
2023-11-17T02:02:42.968Z,963.73
2023-11-17T02:03:42.955Z,963.77
2023-11-17T02:04:42.913Z,963.78
2023-11-17T02:05:42.883Z,963.84
2023-11-17T02:06:42.861Z,963.82
2023-11-17T02:07:42.843Z,963.82
2023-11-17T02:08:42.847Z,963.78
2023-11-17T02:09:42.830Z,963.82
2023-11-17T02:10:42.818Z,963.84
2023-11-17T02:11:42.810Z,963.86
2023-11-17T02:12:42.791Z,963.92
2023-11-17T02:13:42.793Z,963.94
2023-11-17T02:14:42.763Z,963.97
2023-11-17T02:15:42.785Z,963.95
2023-11-17T02:16:42.828Z,964.01
2023-11-17T02:17:42.812Z,964.04
2023-11-17T02:18:42.732Z,964.01
2023-11-17T02:19:42.748Z,964.03
2023-11-17T02:20:42.711Z,964.03
2023-11-17T02:21:42.694Z,963.99
2023-11-17T02:22:42.698Z,964.10
2023-11-17T02:23:42.687Z,964.09
2023-11-17T02:24:42.670Z,964.10
2023-11-17T02:25:42.656Z,964.14
2023-11-17T02:26:42.656Z,964.16
2023-11-17T02:27:42.642Z,964.18
2023-11-17T02:28:42.623Z,964.20
2023-11-17T02:29:42.620Z,964.21
2023-11-17T02:30:42.643Z,964.20
2023-11-17T02:31:42.645Z,964.20
2023-11-17T02:32:42.598Z,964.23
2023-11-17T02:33:42.568Z,964.24
2023-11-17T02:34:42.568Z,964.28
2023-11-17T02:35:42.569Z,964.25
2023-11-17T02:36:42.527Z,964.21
2023-11-17T02:37:42.531Z,964.24
2023-11-17T02:38:42.502Z,964.23
2023-11-17T02:39:42.495Z,964.22
2023-11-17T02:40:42.489Z,964.24
2023-11-17T02:41:42.469Z,964.28
2023-11-17T02:42:42.463Z,964.29
2023-11-17T02:43:42.451Z,964.26
2023-11-17T02:44:42.446Z,964.27
2023-11-17T02:45:42.433Z,964.30
2023-11-17T02:46:42.481Z,964.28
2023-11-17T02:47:42.448Z,964.35
2023-11-17T02:48:42.408Z,964.35
2023-11-17T02:49:42.422Z,964.38
2023-11-17T02:50:42.374Z,964.41
2023-11-17T02:51:42.353Z,964.48
2023-11-17T02:52:42.344Z,964.48
2023-11-17T02:53:42.322Z,964.52
2023-11-17T02:54:42.334Z,964.51
2023-11-17T02:55:42.324Z,964.55
2023-11-17T02:56:42.319Z,964.57
2023-11-17T02:57:42.296Z,964.66
2023-11-17T02:58:42.279Z,964.69
2023-11-17T02:59:42.268Z,964.64
2023-11-17T03:00:42.266Z,964.60
2023-11-17T03:01:42.293Z,964.62
2023-11-17T03:02:42.437Z,964.70
2023-11-17T03:03:42.294Z,964.60
2023-11-17T03:04:42.267Z,964.66
2023-11-17T03:05:42.207Z,964.64
2023-11-17T03:06:42.202Z,964.74
2023-11-17T03:07:42.221Z,964.69
2023-11-17T03:08:42.171Z,964.74
2023-11-17T03:09:42.160Z,964.72
2023-11-17T03:10:42.152Z,964.75
2023-11-17T03:11:42.147Z,964.76
2023-11-17T03:12:42.132Z,964.76
2023-11-17T03:13:42.109Z,964.82
2023-11-17T03:14:42.115Z,964.79
2023-11-17T03:15:42.095Z,964.79
2023-11-17T03:16:42.228Z,964.89
2023-11-17T03:17:42.087Z,964.90
2023-11-17T03:18:42.069Z,964.90
2023-11-17T03:19:42.100Z,964.88
2023-11-17T03:20:42.045Z,964.92
2023-11-17T03:21:42.051Z,964.89
2023-11-17T03:22:42.025Z,964.97
2023-11-17T03:23:42.016Z,965.05
2023-11-17T03:24:41.999Z,965.07
2023-11-17T03:25:41.980Z,965.10
2023-11-17T03:26:41.993Z,965.10
2023-11-17T03:27:41.954Z,965.07
2023-11-17T03:28:41.936Z,965.13
2023-11-17T03:29:41.931Z,965.09
2023-11-17T03:30:41.916Z,965.10
2023-11-17T03:31:41.997Z,965.15
2023-11-17T03:32:42.044Z,965.14
2023-11-17T03:33:41.889Z,965.16
2023-11-17T03:34:41.879Z,965.14
2023-11-17T03:35:42.212Z,965.16
2023-11-17T03:36:41.861Z,965.12
2023-11-17T03:37:41.860Z,965.18
2023-11-17T03:38:41.860Z,965.12
2023-11-17T03:39:41.817Z,965.13
2023-11-17T03:40:41.834Z,965.15
2023-11-17T03:41:41.914Z,965.19
2023-11-17T03:42:41.919Z,965.21
2023-11-17T03:43:41.778Z,965.32
2023-11-17T03:44:41.780Z,965.30
2023-11-17T03:45:41.753Z,965.22
2023-11-17T03:46:41.803Z,965.28
2023-11-17T03:47:41.749Z,965.25
2023-11-17T03:48:41.777Z,965.28
2023-11-17T03:49:41.719Z,965.34
2023-11-17T03:50:41.710Z,965.34
2023-11-17T03:51:41.686Z,965.42
2023-11-17T03:52:41.685Z,965.42
2023-11-17T03:53:41.657Z,965.42
2023-11-17T03:54:41.662Z,965.43
2023-11-17T03:55:41.630Z,965.44
2023-11-17T03:56:41.644Z,965.45
2023-11-17T03:57:41.631Z,965.41
2023-11-17T03:58:41.604Z,965.47
2023-11-17T03:59:41.597Z,965.49
2023-11-17T04:00:41.604Z,965.46
2023-11-17T04:01:41.660Z,965.45
2023-11-17T04:02:41.593Z,965.47
2023-11-17T04:03:41.599Z,965.50
2023-11-17T04:04:41.628Z,965.53
2023-11-17T04:05:41.545Z,965.50
2023-11-17T04:06:41.557Z,965.50
2023-11-17T04:07:41.518Z,965.50
2023-11-17T04:08:41.508Z,965.50
2023-11-17T04:09:41.495Z,965.49
2023-11-17T04:10:41.490Z,965.53
2023-11-17T04:11:41.470Z,965.52
2023-11-17T04:12:41.463Z,965.58
2023-11-17T04:13:41.446Z,965.62
2023-11-17T04:14:41.439Z,965.54
2023-11-17T04:15:41.425Z,965.61
2023-11-17T04:16:41.563Z,965.62
2023-11-17T04:17:41.419Z,965.68
2023-11-17T04:18:41.395Z,965.64
2023-11-17T04:19:41.378Z,965.63
2023-11-17T04:20:41.375Z,965.67
2023-11-17T04:21:41.354Z,965.62
2023-11-17T04:22:41.352Z,965.62
2023-11-17T04:23:41.329Z,965.67
2023-11-17T04:24:41.321Z,965.67
2023-11-17T04:25:41.309Z,965.69
2023-11-17T04:26:41.311Z,965.70
2023-11-17T04:27:41.294Z,965.67
2023-11-17T04:28:41.287Z,965.66
2023-11-17T04:29:41.268Z,965.68
2023-11-17T04:30:41.251Z,965.65
2023-11-17T04:31:41.244Z,965.73
2023-11-17T04:32:41.393Z,965.74
2023-11-17T04:33:41.354Z,965.68
2023-11-17T04:34:41.201Z,965.68
2023-11-17T04:35:41.195Z,965.64
2023-11-17T04:36:41.185Z,965.67
2023-11-17T04:37:41.583Z,965.68
2023-11-17T04:38:41.155Z,965.72
2023-11-17T04:39:41.152Z,965.75
2023-11-17T04:40:41.138Z,965.78
2023-11-17T04:41:41.150Z,965.81
2023-11-17T04:42:41.260Z,965.75
2023-11-17T04:43:41.097Z,965.85
2023-11-17T04:44:41.102Z,965.79
2023-11-17T04:45:41.082Z,965.86
2023-11-17T04:46:41.214Z,965.82
2023-11-17T04:47:41.088Z,965.81
2023-11-17T04:48:41.046Z,965.85
2023-11-17T04:49:41.035Z,965.84
2023-11-17T04:50:41.044Z,965.87
2023-11-17T04:51:41.007Z,965.85
2023-11-17T04:52:41.039Z,965.90
2023-11-17T04:53:41.008Z,965.89
2023-11-17T04:54:40.976Z,965.88
2023-11-17T04:55:40.975Z,965.88
2023-11-17T04:56:40.957Z,965.89
2023-11-17T04:57:40.934Z,965.94
2023-11-17T04:58:40.943Z,965.94
2023-11-17T04:59:40.926Z,965.88
2023-11-17T05:00:40.915Z,965.92
2023-11-17T05:01:41.394Z,965.94
2023-11-17T05:02:40.925Z,965.98
2023-11-17T05:03:40.901Z,965.96
2023-11-17T05:04:40.922Z,965.96
2023-11-17T05:05:40.852Z,965.99
2023-11-17T05:06:40.850Z,965.95
2023-11-17T05:07:40.827Z,965.97
2023-11-17T05:08:40.826Z,966.02
2023-11-17T05:09:40.847Z,966.05
2023-11-17T05:10:40.870Z,966.07
2023-11-17T05:11:40.825Z,966.07
2023-11-17T05:12:40.781Z,966.07
2023-11-17T05:13:40.763Z,966.05
2023-11-17T05:14:40.756Z,966.03
2023-11-17T05:15:40.763Z,966.05
2023-11-17T05:16:40.782Z,966.06
2023-11-17T05:17:40.721Z,966.05
2023-11-17T05:18:40.706Z,966.05
2023-11-17T05:19:40.698Z,966.04
2023-11-17T05:20:40.693Z,966.06
2023-11-17T05:21:40.671Z,966.02
2023-11-17T05:22:40.668Z,965.97
2023-11-17T05:23:40.666Z,966.02
2023-11-17T05:24:40.685Z,966.03
2023-11-17T05:25:40.616Z,966.04
2023-11-17T05:26:40.609Z,966.07
2023-11-17T05:27:40.593Z,966.05
2023-11-17T05:28:40.627Z,966.08
2023-11-17T05:29:40.575Z,966.07
2023-11-17T05:30:40.555Z,966.08
2023-11-17T05:31:40.623Z,966.06
2023-11-17T05:32:40.573Z,966.05
2023-11-17T05:33:42.841Z,966.05
2023-11-17T05:34:40.530Z,966.11
2023-11-17T05:35:40.509Z,966.13
2023-11-17T05:36:40.723Z,966.15
2023-11-17T05:37:40.484Z,966.14
2023-11-17T05:38:40.474Z,966.11
2023-11-17T05:39:40.453Z,966.17
2023-11-17T05:40:40.460Z,966.14
2023-11-17T05:41:40.447Z,966.17
2023-11-17T05:42:40.427Z,966.15
2023-11-17T05:43:40.422Z,966.15
2023-11-17T05:44:40.441Z,966.15
2023-11-17T05:45:40.434Z,966.18
2023-11-17T05:46:40.461Z,966.27
2023-11-17T05:47:40.417Z,966.22
2023-11-17T05:48:40.366Z,966.21
2023-11-17T05:49:40.361Z,966.18
2023-11-17T05:50:40.337Z,966.22
2023-11-17T05:51:40.318Z,966.20
2023-11-17T05:52:40.405Z,966.24
2023-11-17T05:53:40.314Z,966.25
2023-11-17T05:54:40.295Z,966.27
2023-11-17T05:55:40.281Z,966.29
2023-11-17T05:56:40.286Z,966.39
2023-11-17T05:57:40.252Z,966.35
2023-11-17T05:58:40.256Z,966.38
2023-11-17T05:59:40.232Z,966.38
2023-11-17T06:00:40.233Z,966.38
2023-11-17T06:01:40.219Z,966.45
2023-11-17T06:02:40.260Z,966.42
2023-11-17T06:03:40.329Z,966.42
2023-11-17T06:04:40.337Z,966.42
2023-11-17T06:05:40.168Z,966.39
2023-11-17T06:06:40.162Z,966.42
2023-11-17T06:07:40.155Z,966.43
2023-11-17T06:08:40.138Z,966.41
2023-11-17T06:09:40.121Z,966.44
2023-11-17T06:10:40.167Z,966.43
2023-11-17T06:11:40.094Z,966.43
2023-11-17T06:12:40.089Z,966.40
2023-11-17T06:13:40.108Z,966.45
2023-11-17T06:14:40.088Z,966.46
2023-11-17T06:15:40.067Z,966.40
2023-11-17T06:16:40.163Z,966.36
2023-11-17T06:17:40.134Z,966.40
2023-11-17T06:18:40.041Z,966.40
2023-11-17T06:19:40.020Z,966.45
2023-11-17T06:20:40.017Z,966.37
2023-11-17T06:21:39.990Z,966.39
2023-11-17T06:22:40.051Z,966.50
2023-11-17T06:23:39.962Z,966.44
2023-11-17T06:24:39.959Z,966.47
2023-11-17T06:25:39.949Z,966.51
2023-11-17T06:26:39.932Z,966.54
2023-11-17T06:27:40.033Z,966.53
2023-11-17T06:28:39.923Z,966.58
2023-11-17T06:29:39.895Z,966.57
2023-11-17T06:30:39.896Z,966.55
2023-11-17T06:31:39.907Z,966.56
2023-11-17T06:32:39.909Z,966.58
2023-11-17T06:33:39.868Z,966.57
2023-11-17T06:34:39.858Z,966.54
2023-11-17T06:35:39.829Z,966.58
2023-11-17T06:36:41.293Z,966.61
2023-11-17T06:37:39.821Z,966.66
2023-11-17T06:38:39.816Z,966.67
2023-11-17T06:39:39.791Z,966.68
2023-11-17T06:40:39.795Z,966.73
2023-11-17T06:41:39.765Z,966.73
2023-11-17T06:42:39.753Z,966.75
2023-11-17T06:43:39.762Z,966.73
2023-11-17T06:44:39.740Z,966.72
2023-11-17T06:45:39.723Z,966.76
2023-11-17T06:46:39.828Z,966.77
2023-11-17T06:47:39.715Z,966.76
2023-11-17T06:48:39.697Z,966.84
2023-11-17T06:49:39.720Z,966.83
2023-11-17T06:50:39.670Z,966.81
2023-11-17T06:51:39.656Z,966.86
2023-11-17T06:52:39.656Z,966.78
2023-11-17T06:53:39.632Z,966.81
2023-11-17T06:54:39.622Z,966.86
2023-11-17T06:55:39.695Z,966.80
2023-11-17T06:56:39.608Z,966.84
2023-11-17T06:57:39.621Z,966.82
2023-11-17T06:58:39.607Z,966.85
2023-11-17T06:59:39.577Z,966.86
2023-11-17T07:00:39.558Z,966.84
2023-11-17T07:01:39.614Z,966.84
2023-11-17T07:02:39.597Z,966.89
2023-11-17T07:03:39.618Z,966.91
2023-11-17T07:04:39.555Z,966.91
2023-11-17T07:05:39.611Z,966.90
2023-11-17T07:06:39.489Z,966.92
2023-11-17T07:07:39.509Z,966.89
2023-11-17T07:08:39.463Z,966.93
2023-11-17T07:09:39.464Z,966.92
2023-11-17T07:10:39.478Z,966.95
2023-11-17T07:11:39.447Z,966.98
2023-11-17T07:12:39.465Z,966.96
2023-11-17T07:13:39.446Z,967.01
2023-11-17T07:14:39.401Z,967.05
2023-11-17T07:15:39.421Z,967.03
2023-11-17T07:16:45.141Z,967.04
2023-11-17T07:17:39.432Z,967.02
2023-11-17T07:18:39.449Z,967.05
2023-11-17T07:19:39.372Z,967.07
2023-11-17T07:20:39.333Z,967.05
2023-11-17T07:21:39.334Z,967.12
2023-11-17T07:22:39.355Z,967.08
2023-11-17T07:23:39.304Z,967.19
2023-11-17T07:24:39.299Z,967.20
2023-11-17T07:25:39.310Z,967.17
2023-11-17T07:26:39.267Z,967.21
2023-11-17T07:27:39.250Z,967.18
2023-11-17T07:28:39.237Z,967.21
2023-11-17T07:33:08.438Z,967.37
2023-11-17T07:34:09.410Z,967.36
2023-11-17T07:35:09.365Z,967.33
2023-11-17T07:36:09.337Z,967.33
2023-11-17T07:37:09.356Z,967.34
2023-11-17T07:38:09.325Z,967.34
2023-11-17T07:39:09.311Z,967.37
2023-11-17T07:40:09.340Z,967.38
2023-11-17T07:41:09.291Z,967.42
2023-11-17T07:42:09.280Z,967.43
2023-11-17T07:43:09.271Z,967.47
2023-11-17T07:44:09.265Z,967.51
2023-11-17T07:45:09.254Z,967.53
2023-11-17T07:46:09.322Z,967.51
2023-11-17T07:47:09.244Z,967.49
2023-11-17T07:48:09.262Z,967.53
2023-11-17T07:49:09.256Z,967.50
2023-11-17T07:50:09.220Z,967.51
2023-11-17T07:51:09.176Z,967.52
2023-11-17T07:52:09.185Z,967.51
2023-11-17T07:53:09.188Z,967.53
2023-11-17T07:54:09.149Z,967.56
2023-11-17T07:55:09.186Z,967.61
2023-11-17T07:56:09.135Z,967.62
2023-11-17T07:57:09.118Z,967.64
2023-11-17T07:58:09.108Z,967.70
2023-11-17T07:59:09.102Z,967.74
2023-11-17T08:00:09.080Z,967.69
2023-11-17T08:01:09.081Z,967.67
2023-11-17T08:02:09.054Z,967.72
2023-11-17T08:03:09.229Z,967.70
2023-11-17T08:04:09.121Z,967.71
2023-11-17T08:05:09.114Z,967.67
2023-11-17T08:06:09.013Z,967.73
2023-11-17T08:07:09.062Z,967.76
2023-11-17T08:08:09.054Z,967.78
2023-11-17T08:09:09.006Z,967.83
2023-11-17T08:10:08.987Z,967.80
2023-11-17T08:11:08.970Z,967.82
2023-11-17T08:12:08.942Z,967.81
2023-11-17T08:13:08.977Z,967.80
2023-11-17T08:14:08.927Z,967.77
2023-11-17T08:15:08.909Z,967.87
2023-11-17T08:16:08.970Z,967.85
2023-11-17T08:17:08.966Z,967.85
2023-11-17T08:18:08.936Z,967.82
2023-11-17T08:19:18.174Z,967.83
2023-11-17T08:20:08.884Z,967.81
2023-11-17T08:21:08.857Z,967.83
2023-11-17T08:22:08.854Z,967.82
2023-11-17T08:23:08.829Z,967.82
2023-11-17T08:24:08.811Z,967.78
2023-11-17T08:25:08.844Z,967.79
2023-11-17T08:26:08.798Z,967.82
2023-11-17T08:27:08.788Z,967.83
2023-11-17T08:28:08.796Z,967.85
2023-11-17T08:29:08.762Z,967.87
2023-11-17T08:30:09.268Z,967.86
2023-11-17T08:31:08.813Z,967.85
2023-11-17T08:32:08.922Z,967.87
2023-11-17T08:33:08.769Z,967.84
2023-11-17T08:34:08.737Z,967.89
2023-11-17T08:35:08.700Z,967.86
2023-11-17T08:36:08.701Z,967.88
2023-11-17T08:37:08.680Z,967.90
2023-11-17T08:38:08.656Z,967.89
2023-11-17T08:39:08.641Z,967.90
2023-11-17T08:40:08.664Z,967.91
2023-11-17T08:41:08.628Z,967.94
2023-11-17T08:42:08.616Z,967.87
2023-11-17T08:43:08.645Z,967.89
2023-11-17T08:44:08.600Z,967.91
2023-11-17T08:45:08.702Z,967.92
2023-11-17T08:46:08.734Z,967.96
2023-11-17T08:47:08.682Z,967.99
2023-11-17T08:48:08.620Z,967.97
2023-11-17T08:49:08.559Z,968.00
2023-11-17T08:50:08.539Z,968.02
2023-11-17T08:51:08.512Z,968.07
2023-11-17T08:52:08.522Z,968.07
2023-11-17T08:53:08.495Z,968.02
2023-11-17T08:54:08.489Z,968.02
2023-11-17T08:55:08.555Z,967.99
2023-11-17T08:56:08.471Z,967.99
2023-11-17T08:57:08.463Z,968.05
2023-11-17T08:58:08.484Z,968.01
2023-11-17T08:59:08.430Z,968.01
2023-11-17T09:00:08.417Z,967.99
2023-11-17T09:01:08.507Z,967.99
2023-11-17T09:02:08.453Z,968.02
2023-11-17T09:03:08.431Z,968.05
2023-11-17T09:04:08.456Z,967.99
2023-11-17T09:05:08.358Z,968.02
2023-11-17T09:06:08.356Z,968.01
2023-11-17T09:07:08.388Z,968.04
2023-11-17T09:08:08.442Z,968.07
2023-11-17T09:09:19.725Z,968.05
2023-11-17T09:10:08.384Z,968.06
2023-11-17T09:11:08.294Z,968.07
2023-11-17T09:12:08.282Z,968.08
2023-11-17T09:13:08.290Z,968.07
2023-11-17T09:14:08.259Z,968.04
2023-11-17T09:15:08.260Z,968.06
2023-11-17T09:16:08.318Z,968.08
2023-11-17T09:17:08.865Z,968.10
2023-11-17T09:18:08.239Z,968.07
2023-11-17T09:19:08.273Z,968.08
2023-11-17T09:20:08.233Z,968.08
2023-11-17T09:21:08.190Z,968.09
2023-11-17T09:22:08.214Z,968.12
2023-11-17T09:23:08.164Z,968.14
2023-11-17T09:24:08.157Z,968.12
2023-11-17T09:25:08.157Z,968.14
2023-11-17T09:26:08.139Z,968.17
2023-11-17T09:27:08.120Z,968.18
2023-11-17T09:28:08.167Z,968.21
2023-11-17T09:29:08.110Z,968.20
2023-11-17T09:30:08.089Z,968.22
2023-11-17T09:31:08.120Z,968.16
2023-11-17T09:32:08.065Z,968.21
2023-11-17T09:33:08.139Z,968.28
2023-11-17T09:34:08.109Z,968.20
2023-11-17T09:35:08.139Z,968.24
2023-11-17T09:36:08.026Z,968.22
2023-11-17T09:37:08.034Z,968.16
2023-11-17T09:38:08.063Z,968.21
2023-11-17T09:39:08.013Z,968.20
2023-11-17T09:40:07.993Z,968.24
2023-11-17T09:41:07.987Z,968.22
2023-11-17T09:42:07.953Z,968.28
2023-11-17T09:43:07.971Z,968.30
2023-11-17T09:44:07.938Z,968.29
2023-11-17T09:45:08.024Z,968.32
2023-11-17T09:46:07.932Z,968.28
2023-11-17T09:47:07.924Z,968.31
2023-11-17T09:48:07.951Z,968.32
2023-11-17T09:49:07.905Z,968.31
2023-11-17T09:50:07.870Z,968.34
2023-11-17T09:51:07.851Z,968.33
2023-11-17T09:52:07.882Z,968.32
2023-11-17T09:53:07.854Z,968.41
2023-11-17T09:54:07.834Z,968.38
2023-11-17T09:55:07.833Z,968.38
2023-11-17T09:56:07.804Z,968.45
2023-11-17T09:57:07.788Z,968.39
2023-11-17T09:58:08.152Z,968.38
2023-11-17T09:59:07.804Z,968.41
2023-11-17T10:00:07.779Z,968.42
2023-11-17T10:01:07.873Z,968.43
2023-11-17T10:02:07.894Z,968.41
2023-11-17T10:03:07.801Z,968.37
2023-11-17T10:04:07.797Z,968.41
2023-11-17T10:05:07.704Z,968.39
2023-11-17T10:06:07.696Z,968.46
2023-11-17T10:07:07.730Z,968.45
2023-11-17T10:08:07.709Z,968.44
2023-11-17T10:09:07.670Z,968.46
2023-11-17T10:10:07.692Z,968.52
2023-11-17T10:11:07.636Z,968.47
2023-11-17T10:12:07.629Z,968.45
2023-11-17T10:13:07.654Z,968.48
2023-11-17T10:14:07.610Z,968.47
2023-11-17T10:15:07.611Z,968.48
2023-11-17T10:16:07.646Z,968.48
2023-11-17T10:17:07.639Z,968.49
2023-11-17T10:18:07.664Z,968.44
2023-11-17T10:19:07.616Z,968.45
2023-11-17T10:20:07.542Z,968.48
2023-11-17T10:21:07.525Z,968.45
2023-11-17T10:22:07.547Z,968.52
2023-11-17T10:23:07.576Z,968.52
2023-11-17T10:24:07.506Z,968.53
2023-11-17T10:25:07.517Z,968.45
2023-11-17T10:26:07.477Z,968.46
2023-11-17T10:27:07.457Z,968.47
2023-11-17T10:28:07.493Z,968.48
2023-11-17T10:29:07.438Z,968.47
2023-11-17T10:30:07.495Z,968.47
2023-11-17T10:31:07.431Z,968.50
2023-11-17T10:32:22.945Z,968.52
2023-11-17T10:33:14.653Z,968.52
2023-11-17T10:34:07.542Z,968.50
2023-11-17T10:35:07.458Z,968.50
2023-11-17T10:36:07.398Z,968.46
2023-11-17T10:37:07.350Z,968.46
2023-11-17T10:38:07.351Z,968.43
2023-11-17T10:39:07.352Z,968.41
2023-11-17T10:40:11.548Z,968.44
2023-11-17T10:41:07.325Z,968.46
2023-11-17T10:42:07.300Z,968.47
2023-11-17T10:43:07.366Z,968.39
2023-11-17T10:44:07.277Z,968.41
2023-11-17T10:45:07.766Z,968.38
2023-11-17T10:46:07.327Z,968.33
2023-11-17T10:47:07.282Z,968.38
2023-11-17T10:48:07.260Z,968.39
2023-11-17T10:49:07.265Z,968.33
2023-11-17T10:50:07.219Z,968.32
2023-11-17T10:51:07.211Z,968.23
2023-11-17T10:52:07.270Z,968.29
2023-11-17T10:53:07.169Z,968.31
2023-11-17T10:54:07.242Z,968.33
2023-11-17T10:55:07.198Z,968.32
2023-11-17T10:56:07.147Z,968.31
2023-11-17T10:57:07.125Z,968.30
2023-11-17T10:58:07.144Z,968.28
2023-11-17T10:59:07.122Z,968.22
2023-11-17T11:00:07.100Z,968.27
2023-11-17T11:01:07.091Z,968.24
2023-11-17T11:02:07.151Z,968.20
2023-11-17T11:03:07.127Z,968.20
2023-11-17T11:04:07.219Z,968.21
2023-11-17T11:05:07.049Z,968.22
2023-11-17T11:06:07.044Z,968.19
2023-11-17T11:07:07.127Z,968.19
2023-11-17T11:08:07.026Z,968.10
2023-11-17T11:09:07.023Z,968.15
2023-11-17T11:10:07.034Z,968.14
2023-11-17T11:11:06.980Z,968.11
2023-11-17T11:12:06.963Z,968.15
2023-11-17T11:13:06.977Z,968.15
2023-11-17T11:14:06.957Z,968.19
2023-11-17T11:15:06.939Z,968.14
2023-11-17T11:16:07.500Z,968.15
2023-11-17T11:17:06.957Z,968.08
2023-11-17T11:18:06.941Z,968.09
2023-11-17T11:19:06.928Z,968.14
2023-11-17T11:20:21.318Z,968.15
2023-11-17T11:21:06.948Z,968.17
2023-11-17T11:22:06.953Z,968.14
2023-11-17T11:23:06.891Z,968.11
2023-11-17T11:24:06.911Z,968.07
2023-11-17T11:25:07.081Z,968.05
2023-11-17T11:26:06.842Z,968.06
2023-11-17T11:27:06.970Z,968.09
2023-11-17T11:28:06.838Z,968.14
2023-11-17T11:29:06.781Z,968.14
2023-11-17T11:30:06.784Z,968.11
2023-11-17T11:31:06.817Z,968.13
2023-11-17T11:32:06.877Z,968.13
2023-11-17T11:33:06.746Z,968.14
2023-11-17T11:34:06.765Z,968.08
2023-11-17T11:35:06.727Z,968.06
2023-11-17T11:36:06.714Z,968.04
2023-11-17T11:37:06.714Z,968.06
2023-11-17T11:38:06.729Z,968.11
2023-11-17T11:39:07.032Z,968.09
2023-11-17T11:40:06.762Z,968.11
2023-11-17T11:41:06.645Z,968.13
2023-11-17T11:42:06.631Z,968.14
2023-11-17T11:43:06.658Z,968.19
2023-11-17T11:44:06.616Z,968.20
2023-11-17T11:45:06.628Z,968.14
2023-11-17T11:46:06.660Z,968.17
2023-11-17T11:47:06.665Z,968.14
2023-11-17T11:48:06.648Z,968.16
2023-11-17T11:49:06.668Z,968.12
2023-11-17T11:50:07.701Z,968.21
2023-11-17T11:51:06.545Z,968.22
2023-11-17T11:52:06.537Z,968.24
2023-11-17T11:53:06.531Z,968.22
2023-11-17T11:54:06.513Z,968.28
2023-11-17T11:55:06.518Z,968.24
2023-11-17T11:56:06.488Z,968.23
2023-11-17T11:57:06.518Z,968.22
2023-11-17T11:58:06.477Z,968.20
2023-11-17T11:59:06.463Z,968.21
2023-11-17T12:00:06.444Z,968.17
2023-11-17T12:01:06.437Z,968.15
2023-11-17T12:02:06.413Z,968.13
2023-11-17T12:03:06.515Z,968.16
2023-11-17T12:04:06.588Z,968.17
2023-11-17T12:05:06.524Z,968.14
2023-11-17T12:06:06.379Z,968.20
2023-11-17T12:07:06.382Z,968.21
2023-11-17T12:08:06.341Z,968.19
2023-11-17T12:09:06.340Z,968.14
2023-11-17T12:10:06.355Z,968.12
2023-11-17T12:11:06.319Z,968.13
2023-11-17T12:12:06.326Z,968.13
2023-11-17T12:13:06.304Z,968.22
2023-11-17T12:14:06.328Z,968.17
2023-11-17T12:15:06.271Z,968.20
2023-11-17T12:16:06.305Z,968.14
2023-11-17T12:17:06.305Z,968.11
2023-11-17T12:18:06.314Z,968.09
2023-11-17T12:19:06.267Z,968.10
2023-11-17T12:20:06.229Z,968.11
2023-11-17T12:21:06.198Z,968.05
2023-11-17T12:22:06.376Z,968.07
2023-11-17T12:23:06.171Z,968.12
2023-11-17T12:24:06.172Z,968.10
2023-11-17T12:25:06.190Z,968.15
2023-11-17T12:26:06.167Z,968.16
2023-11-17T12:27:06.450Z,968.15
2023-11-17T12:28:06.175Z,968.10
2023-11-17T12:29:06.112Z,968.10
2023-11-17T12:30:06.272Z,968.19
2023-11-17T12:31:06.161Z,968.16
2023-11-17T12:32:06.294Z,968.20